PWSweather.com
Personal Weather Stations
Station Observations
DEEPSOUTH
Waverley, InvercargillNZ 9810

WaverleyInvercargillNZ 9810

Lat: -46.3926834, Lon: 168.381112

Elevation: 72

Station Type: Davis VP2

http://www.deepsouthweather.co.nz/

High Low Average
Temperature 59.2°F15.1°C 39.7°F4.3°C 50.7°F10.4°C
Dew Point 47.7°F8.7°C 37.6°F3.1°C 42.3°F5.7°C
Winds 9.0 mph 14.5 kmh Calm Calm 3.0 mph S4.8 kmh S
Wind Gusts 21.0 mph33.8 kmh -- 8.0 mph12.9 kmh
Humidity 92% 53% 74%
Pressure 30.35 in1027.8 mb 30.13 in1020.3 mb -
Precipitation 0.01 in0.3 mm - -
Hour Temp Dew Point Humidity Winds Wind Gusts Pressure Precip Precip Rate Daily Precip Total
12:04 AM 49.6°F9.8°C 40.3°F4.6°C 70% 8.0 mph WSW12.9 kmh WSW 16.0 mph25.7 kmh 30.13 in1020.3 mb 0.00 in0.0 mm 0.00 in/hr0.0 mm/hr 0.01 in0.3 mm
12:19 AM 49.5°F9.7°C 40.1°F4.5°C 70% 6.0 mph W9.7 kmh W 14.0 mph22.5 kmh 30.14 in1020.7 mb 0.00 in0.0 mm 0.00 in/hr0.0 mm/hr 0.01 in0.3 mm
12:34 AM 49.8°F9.9°C 40.8°F4.9°C 71% 9.0 mph W14.5 kmh W 21.0 mph33.8 kmh 30.14 in1020.7 mb 0.00 in0.0 mm 0.00 in/hr0.0 mm/hr 0.01 in0.3 mm
12:49 AM 49.6°F9.8°C 40.6°F4.8°C 71% 7.0 mph WSW11.3 kmh WSW 14.0 mph22.5 kmh 30.15 in1021.0 mb 0.00 in0.0 mm 0.00 in/hr0.0 mm/hr 0.01 in0.3 mm
01:04 AM 49.8°F9.9°C 41.2°F5.1°C 72% 7.0 mph WSW11.3 kmh WSW 16.0 mph25.7 kmh 30.16 in1021.3 mb 0.00 in0.0 mm 0.00 in/hr0.0 mm/hr 0.01 in0.3 mm
01:19 AM 49.8°F9.9°C 40.8°F4.9°C 71% 6.0 mph WSW9.7 kmh WSW 14.0 mph22.5 kmh 30.17 in1021.7 mb 0.00 in0.0 mm 0.00 in/hr0.0 mm/hr 0.01 in0.3 mm
01:34 AM 49.5°F9.7°C 40.1°F4.5°C 70% 5.0 mph WSW8.0 kmh WSW 14.0 mph22.5 kmh 30.17 in1021.7 mb 0.00 in0.0 mm 0.00 in/hr0.0 mm/hr 0.01 in0.3 mm
01:49 AM 48.6°F9.2°C 41.3°F5.2°C 76% 9.0 mph SW14.5 kmh SW 15.0 mph24.1 kmh 30.17 in1021.7 mb 0.00 in0.0 mm 0.00 in/hr0.0 mm/hr 0.01 in0.3 mm
02:04 AM 47.7°F8.7°C 41.1°F5.1°C 78% 4.0 mph WSW6.4 kmh WSW 8.0 mph12.9 kmh 30.18 in1022.0 mb 0.00 in0.0 mm 0.00 in/hr0.0 mm/hr 0.01 in0.3 mm
02:19 AM 47.7°F8.7°C 41.5°F5.3°C 79% 4.0 mph WSW6.4 kmh WSW 10.0 mph16.1 kmh 30.18 in1022.0 mb 0.00 in0.0 mm 0.00 in/hr0.0 mm/hr 0.01 in0.3 mm
02:34 AM 47.8°F8.8°C 41.3°F5.2°C 78% 5.0 mph WSW8.0 kmh WSW 13.0 mph20.9 kmh 30.19 in1022.4 mb 0.00 in0.0 mm 0.00 in/hr0.0 mm/hr 0.01 in0.3 mm
02:49 AM 48.7°F9.3°C 41.5°F5.3°C 76% 7.0 mph WSW11.3 kmh WSW 16.0 mph25.7 kmh 30.20 in1022.7 mb 0.00 in0.0 mm 0.00 in/hr0.0 mm/hr 0.01 in0.3 mm
03:04 AM 48.7°F9.3°C 40.8°F4.9°C 74% 5.0 mph WSW8.0 kmh WSW 9.0 mph14.5 kmh 30.21 in1023.0 mb 0.00 in0.0 mm 0.00 in/hr0.0 mm/hr 0.01 in0.3 mm
03:19 AM 48.2°F9.0°C 40.6°F4.8°C 75% 2.0 mph WSW3.2 kmh WSW 7.0 mph11.3 kmh 30.21 in1023.0 mb 0.00 in0.0 mm 0.00 in/hr0.0 mm/hr 0.01 in0.3 mm
03:34 AM 47.7°F8.7°C 40.5°F4.7°C 76% 2.0 mph W3.2 kmh W 5.0 mph8.0 kmh 30.22 in1023.4 mb 0.00 in0.0 mm 0.00 in/hr0.0 mm/hr 0.01 in0.3 mm
03:49 AM 47.7°F8.7°C 40.5°F4.7°C 76% 3.0 mph WSW4.8 kmh WSW 9.0 mph14.5 kmh 30.22 in1023.4 mb 0.00 in0.0 mm 0.00 in/hr0.0 mm/hr 0.01 in0.3 mm
04:04 AM 47.7°F8.7°C 40.5°F4.7°C 76% 3.0 mph WSW4.8 kmh WSW 9.0 mph14.5 kmh 30.23 in1023.7 mb 0.00 in0.0 mm 0.00 in/hr0.0 mm/hr 0.01 in0.3 mm
04:19 AM 47.5°F8.6°C 40.3°F4.6°C 76% 3.0 mph WSW4.8 kmh WSW 7.0 mph11.3 kmh 30.23 in1023.7 mb 0.00 in0.0 mm 0.00 in/hr0.0 mm/hr 0.01 in0.3 mm
04:34 AM 47.1°F8.4°C 39.9°F4.4°C 76% 3.0 mph WSW4.8 kmh WSW 7.0 mph11.3 kmh 30.23 in1023.7 mb 0.00 in0.0 mm 0.00 in/hr0.0 mm/hr 0.01 in0.3 mm
04:49 AM 46.4°F8.0°C 39.6°F4.2°C 77% 1.0 mph NW1.6 kmh NW 5.0 mph8.0 kmh 30.24 in1024.0 mb 0.00 in0.0 mm 0.00 in/hr0.0 mm/hr 0.01 in0.3 mm
05:04 AM 44.8°F7.1°C 38.7°F3.7°C 79% 3.0 mph NE4.8 kmh NE 7.0 mph11.3 kmh 30.25 in1024.4 mb 0.00 in0.0 mm 0.00 in/hr0.0 mm/hr 0.01 in0.3 mm
05:19 AM 44.2°F6.8°C 39.4°F4.1°C 83% 4.0 mph NNE6.4 kmh NNE 8.0 mph12.9 kmh 30.26 in1024.7 mb 0.00 in0.0 mm 0.00 in/hr0.0 mm/hr 0.01 in0.3 mm
05:34 AM 44.8°F7.1°C 40.5°F4.7°C 85% 3.0 mph N4.8 kmh N 7.0 mph11.3 kmh 30.25 in1024.4 mb 0.00 in0.0 mm 0.00 in/hr0.0 mm/hr 0.01 in0.3 mm
05:49 AM 45.0°F7.2°C 41.0°F5.0°C 86% 3.0 mph N4.8 kmh N 6.0 mph9.7 kmh 30.26 in1024.7 mb 0.00 in0.0 mm 0.00 in/hr0.0 mm/hr 0.01 in0.3 mm
06:04 AM 45.0°F7.2°C 41.3°F5.2°C 87% 3.0 mph NW4.8 kmh NW 8.0 mph12.9 kmh 30.27 in1025.1 mb 0.00 in0.0 mm 0.00 in/hr0.0 mm/hr 0.01 in0.3 mm
06:19 AM 45.1°F7.3°C 41.8°F5.4°C 88% 2.0 mph N3.2 kmh N 5.0 mph8.0 kmh 30.28 in1025.4 mb 0.00 in0.0 mm 0.00 in/hr0.0 mm/hr 0.01 in0.3 mm
06:34 AM 45.1°F7.3°C 42.1°F5.6°C 89% 4.0 mph NE6.4 kmh NE 7.0 mph11.3 kmh 30.29 in1025.7 mb 0.00 in0.0 mm 0.00 in/hr0.0 mm/hr 0.01 in0.3 mm
06:49 AM 45.1°F7.3°C 42.1°F5.6°C 89% 3.0 mph N4.8 kmh N 6.0 mph9.7 kmh 30.30 in1026.1 mb 0.00 in0.0 mm 0.00 in/hr0.0 mm/hr 0.01 in0.3 mm
07:04 AM 45.3°F7.4°C 42.6°F5.9°C 90% 3.0 mph NW4.8 kmh NW 6.0 mph9.7 kmh 30.30 in1026.1 mb 0.00 in0.0 mm 0.00 in/hr0.0 mm/hr 0.01 in0.3 mm
07:19 AM 46.4°F8.0°C 43.9°F6.6°C 91% 3.0 mph NNE4.8 kmh NNE 6.0 mph9.7 kmh 30.30 in1026.1 mb 0.00 in0.0 mm 0.00 in/hr0.0 mm/hr 0.01 in0.3 mm
07:34 AM 47.8°F8.8°C 45.3°F7.4°C 91% 4.0 mph NE6.4 kmh NE 8.0 mph12.9 kmh 30.31 in1026.4 mb 0.00 in0.0 mm 0.00 in/hr0.0 mm/hr 0.01 in0.3 mm
07:49 AM 49.8°F9.9°C 46.4°F8.0°C 88% 3.0 mph NNE4.8 kmh NNE 6.0 mph9.7 kmh 30.31 in1026.4 mb 0.00 in0.0 mm 0.00 in/hr0.0 mm/hr 0.01 in0.3 mm
08:04 AM 51.8°F11.0°C 46.8°F8.2°C 83% 5.0 mph NNW8.0 kmh NNW 9.0 mph14.5 kmh 30.31 in1026.4 mb 0.00 in0.0 mm 0.00 in/hr0.0 mm/hr 0.01 in0.3 mm
08:19 AM 52.5°F11.4°C 46.9°F8.3°C 81% 4.0 mph NNE6.4 kmh NNE 7.0 mph11.3 kmh 30.32 in1026.8 mb 0.00 in0.0 mm 0.00 in/hr0.0 mm/hr 0.01 in0.3 mm
08:34 AM 53.1°F11.7°C 47.7°F8.7°C 82% 5.0 mph N8.0 kmh N 9.0 mph14.5 kmh 30.32 in1026.8 mb 0.00 in0.0 mm 0.00 in/hr0.0 mm/hr 0.01 in0.3 mm
08:49 AM 52.9°F11.6°C 46.9°F8.3°C 80% 4.0 mph NNW6.4 kmh NNW 8.0 mph12.9 kmh 30.33 in1027.1 mb 0.00 in0.0 mm 0.00 in/hr0.0 mm/hr 0.01 in0.3 mm
09:04 AM 54.7°F12.6°C 47.3°F8.5°C 76% 6.0 mph NNW9.7 kmh NNW 12.0 mph19.3 kmh 30.33 in1027.1 mb 0.00 in0.0 mm 0.00 in/hr0.0 mm/hr 0.01 in0.3 mm
09:19 AM 54.3°F12.4°C 47.3°F8.5°C 77% 3.0 mph WNW4.8 kmh WNW 8.0 mph12.9 kmh 30.33 in1027.1 mb 0.00 in0.0 mm 0.00 in/hr0.0 mm/hr 0.01 in0.3 mm
09:34 AM 54.5°F12.5°C 45.3°F7.4°C 71% 6.0 mph WSW9.7 kmh WSW 14.0 mph22.5 kmh 30.34 in1027.4 mb 0.00 in0.0 mm 0.00 in/hr0.0 mm/hr 0.01 in0.3 mm
09:49 AM 55.8°F13.2°C 45.4°F7.4°C 68% 4.0 mph W6.4 kmh W 10.0 mph16.1 kmh 30.34 in1027.4 mb 0.00 in0.0 mm 0.00 in/hr0.0 mm/hr 0.01 in0.3 mm
10:04 AM 55.4°F13.0°C 45.4°F7.4°C 69% 5.0 mph W8.0 kmh W 10.0 mph16.1 kmh 30.34 in1027.4 mb 0.00 in0.0 mm 0.00 in/hr0.0 mm/hr 0.01 in0.3 mm
10:19 AM 55.9°F13.3°C 44.3°F6.8°C 65% 5.0 mph W8.0 kmh W 12.0 mph19.3 kmh 30.34 in1027.4 mb 0.00 in0.0 mm 0.00 in/hr0.0 mm/hr 0.01 in0.3 mm
10:34 AM 54.5°F12.5°C 43.8°F6.6°C 67% 4.0 mph W6.4 kmh W 10.0 mph16.1 kmh 30.34 in1027.4 mb 0.00 in0.0 mm 0.00 in/hr0.0 mm/hr 0.01 in0.3 mm
10:49 AM 56.8°F13.8°C 44.0°F6.7°C 62% 7.0 mph W11.3 kmh W 13.0 mph20.9 kmh 30.35 in1027.8 mb 0.00 in0.0 mm 0.00 in/hr0.0 mm/hr 0.01 in0.3 mm
11:04 AM 56.1°F13.4°C 42.4°F5.8°C 60% 6.0 mph W9.7 kmh W 13.0 mph20.9 kmh 30.35 in1027.8 mb 0.00 in0.0 mm 0.00 in/hr0.0 mm/hr 0.01 in0.3 mm
11:19 AM 58.1°F14.5°C 42.9°F6.1°C 57% 5.0 mph W8.0 kmh W 12.0 mph19.3 kmh 30.35 in1027.8 mb 0.00 in0.0 mm 0.00 in/hr0.0 mm/hr 0.01 in0.3 mm
11:34 AM 58.3°F14.6°C 43.1°F6.2°C 57% 6.0 mph WSW9.7 kmh WSW 12.0 mph19.3 kmh 30.35 in1027.8 mb 0.00 in0.0 mm 0.00 in/hr0.0 mm/hr 0.01 in0.3 mm
11:49 AM 58.3°F14.6°C 43.1°F6.2°C 57% 5.0 mph W8.0 kmh W 13.0 mph20.9 kmh 30.35 in1027.8 mb 0.00 in0.0 mm 0.00 in/hr0.0 mm/hr 0.01 in0.3 mm
12:04 PM 58.6°F14.8°C 42.5°F5.8°C 55% 6.0 mph WSW9.7 kmh WSW 14.0 mph22.5 kmh 30.35 in1027.8 mb 0.00 in0.0 mm 0.00 in/hr0.0 mm/hr 0.01 in0.3 mm
12:19 PM 58.8°F14.9°C 43.6°F6.4°C 57% 5.0 mph W8.0 kmh W 11.0 mph17.7 kmh 30.35 in1027.8 mb 0.00 in0.0 mm 0.00 in/hr0.0 mm/hr 0.01 in0.3 mm
12:34 PM 58.8°F14.9°C 43.6°F6.4°C 57% 6.0 mph W9.7 kmh W 14.0 mph22.5 kmh 30.35 in1027.8 mb 0.00 in0.0 mm 0.00 in/hr0.0 mm/hr 0.01 in0.3 mm
12:49 PM 58.8°F14.9°C 45.4°F7.4°C 61% 5.0 mph WNW8.0 kmh WNW 10.0 mph16.1 kmh 30.34 in1027.4 mb 0.00 in0.0 mm 0.00 in/hr0.0 mm/hr 0.01 in0.3 mm
01:04 PM 58.3°F14.6°C 44.4°F6.9°C 60% 6.0 mph W9.7 kmh W 11.0 mph17.7 kmh 30.34 in1027.4 mb 0.00 in0.0 mm 0.00 in/hr0.0 mm/hr 0.01 in0.3 mm
01:19 PM 58.8°F14.9°C 46.7°F8.2°C 64% 5.0 mph W8.0 kmh W 10.0 mph16.1 kmh 30.34 in1027.4 mb 0.00 in0.0 mm 0.00 in/hr0.0 mm/hr 0.01 in0.3 mm
01:34 PM 58.8°F14.9°C 44.1°F6.7°C 58% 5.0 mph W8.0 kmh W 14.0 mph22.5 kmh 30.34 in1027.4 mb 0.00 in0.0 mm 0.00 in/hr0.0 mm/hr 0.01 in0.3 mm
01:49 PM 59.2°F15.1°C 44.9°F7.2°C 59% 6.0 mph W9.7 kmh W 12.0 mph19.3 kmh 30.34 in1027.4 mb 0.00 in0.0 mm 0.00 in/hr0.0 mm/hr 0.01 in0.3 mm
02:04 PM 58.8°F14.9°C 42.7°F5.9°C 55% 6.0 mph WSW9.7 kmh WSW 13.0 mph20.9 kmh 30.34 in1027.4 mb 0.00 in0.0 mm 0.00 in/hr0.0 mm/hr 0.01 in0.3 mm
02:19 PM 59.2°F15.1°C 42.5°F5.8°C 54% 6.0 mph WSW9.7 kmh WSW 11.0 mph17.7 kmh 30.34 in1027.4 mb 0.00 in0.0 mm 0.00 in/hr0.0 mm/hr 0.01 in0.3 mm
02:34 PM 59.0°F15.0°C 41.9°F5.5°C 53% 6.0 mph W9.7 kmh W 13.0 mph20.9 kmh 30.34 in1027.4 mb 0.00 in0.0 mm 0.00 in/hr0.0 mm/hr 0.01 in0.3 mm
02:49 PM 58.8°F14.9°C 42.2°F5.7°C 54% 4.0 mph W6.4 kmh W 11.0 mph17.7 kmh 30.34 in1027.4 mb 0.00 in0.0 mm 0.00 in/hr0.0 mm/hr 0.01 in0.3 mm
03:04 PM 57.9°F14.4°C 41.8°F5.4°C 55% 5.0 mph WSW8.0 kmh WSW 11.0 mph17.7 kmh 30.33 in1027.1 mb 0.00 in0.0 mm 0.00 in/hr0.0 mm/hr 0.01 in0.3 mm
03:19 PM 58.5°F14.7°C 42.8°F6.0°C 56% 5.0 mph SW8.0 kmh SW 10.0 mph16.1 kmh 30.33 in1027.1 mb 0.00 in0.0 mm 0.00 in/hr0.0 mm/hr 0.01 in0.3 mm
03:50 PM 57.4°F14.1°C 43.2°F6.2°C 59% 4.0 mph SW6.4 kmh SW 12.0 mph19.3 kmh 30.33 in1027.1 mb 0.00 in0.0 mm 0.00 in/hr0.0 mm/hr 0.01 in0.3 mm
04:05 PM 57.4°F14.1°C 43.6°F6.4°C 60% 4.0 mph W6.4 kmh W 8.0 mph12.9 kmh 30.33 in1027.1 mb 0.00 in0.0 mm 0.00 in/hr0.0 mm/hr 0.01 in0.3 mm
04:20 PM 57.6°F14.2°C 43.8°F6.6°C 60% 2.0 mph WSW3.2 kmh WSW 6.0 mph9.7 kmh 30.32 in1026.8 mb 0.00 in0.0 mm 0.00 in/hr0.0 mm/hr 0.01 in0.3 mm
04:35 PM 56.8°F13.8°C 42.7°F5.9°C 59% 3.0 mph W4.8 kmh W 7.0 mph11.3 kmh 30.32 in1026.8 mb 0.00 in0.0 mm 0.00 in/hr0.0 mm/hr 0.01 in0.3 mm
04:50 PM 56.7°F13.7°C 42.9°F6.1°C 60% 3.0 mph WSW4.8 kmh WSW 7.0 mph11.3 kmh 30.32 in1026.8 mb 0.00 in0.0 mm 0.00 in/hr0.0 mm/hr 0.01 in0.3 mm
05:05 PM 56.8°F13.8°C 44.0°F6.7°C 62% 3.0 mph WSW4.8 kmh WSW 7.0 mph11.3 kmh 30.32 in1026.8 mb 0.00 in0.0 mm 0.00 in/hr0.0 mm/hr 0.01 in0.3 mm
05:20 PM 56.5°F13.6°C 44.0°F6.7°C 63% 2.0 mph WSW3.2 kmh WSW 5.0 mph8.0 kmh 30.32 in1026.8 mb 0.00 in0.0 mm 0.00 in/hr0.0 mm/hr 0.01 in0.3 mm
05:35 PM 55.2°F12.9°C 43.7°F6.5°C 65% 1.0 mph NW1.6 kmh NW 5.0 mph8.0 kmh 30.32 in1026.8 mb 0.00 in0.0 mm 0.00 in/hr0.0 mm/hr 0.01 in0.3 mm
05:50 PM 54.1°F12.3°C 44.2°F6.8°C 69% 2.0 mph WSW3.2 kmh WSW 5.0 mph8.0 kmh 30.32 in1026.8 mb 0.00 in0.0 mm 0.00 in/hr0.0 mm/hr 0.01 in0.3 mm
06:05 PM 53.4°F11.9°C 44.2°F6.8°C 71% 2.0 mph WSW3.2 kmh WSW 4.0 mph6.4 kmh 30.32 in1026.8 mb 0.00 in0.0 mm 0.00 in/hr0.0 mm/hr 0.01 in0.3 mm
06:20 PM 52.5°F11.4°C 43.8°F6.6°C 72% Calm Calm 2.0 mph3.2 kmh 30.32 in1026.8 mb 0.00 in0.0 mm 0.00 in/hr0.0 mm/hr 0.01 in0.3 mm
06:35 PM 51.4°F10.8°C 43.4°F6.3°C 74% Calm Calm 1.0 mph1.6 kmh 30.32 in1026.8 mb 0.00 in0.0 mm 0.00 in/hr0.0 mm/hr 0.01 in0.3 mm
06:50 PM 50.2°F10.1°C 42.9°F6.1°C 76% Calm Calm -- 30.32 in1026.8 mb 0.00 in0.0 mm 0.00 in/hr0.0 mm/hr 0.01 in0.3 mm
07:05 PM 49.3°F9.6°C 42.4°F5.8°C 77% Calm Calm -- 30.32 in1026.8 mb 0.00 in0.0 mm 0.00 in/hr0.0 mm/hr 0.01 in0.3 mm
07:20 PM 48.6°F9.2°C 42.0°F5.6°C 78% Calm Calm 2.0 mph3.2 kmh 30.33 in1027.1 mb 0.00 in0.0 mm 0.00 in/hr0.0 mm/hr 0.01 in0.3 mm
07:35 PM 48.0°F8.9°C 41.8°F5.4°C 79% Calm Calm -- 30.33 in1027.1 mb 0.00 in0.0 mm 0.00 in/hr0.0 mm/hr 0.01 in0.3 mm
07:50 PM 47.3°F8.5°C 41.4°F5.2°C 80% Calm Calm -- 30.33 in1027.1 mb 0.00 in0.0 mm 0.00 in/hr0.0 mm/hr 0.01 in0.3 mm
08:05 PM 46.8°F8.2°C 41.2°F5.1°C 81% Calm Calm -- 30.33 in1027.1 mb 0.00 in0.0 mm 0.00 in/hr0.0 mm/hr 0.01 in0.3 mm
08:20 PM 46.0°F7.8°C 40.9°F4.9°C 82% Calm Calm -- 30.34 in1027.4 mb 0.00 in0.0 mm 0.00 in/hr0.0 mm/hr 0.01 in0.3 mm
08:35 PM 45.5°F7.5°C 40.9°F4.9°C 84% Calm Calm -- 30.33 in1027.1 mb 0.00 in0.0 mm 0.00 in/hr0.0 mm/hr 0.01 in0.3 mm
08:50 PM 45.0°F7.2°C 40.7°F4.8°C 85% Calm Calm -- 30.33 in1027.1 mb 0.00 in0.0 mm 0.00 in/hr0.0 mm/hr 0.01 in0.3 mm
09:05 PM 44.2°F6.8°C 40.3°F4.6°C 86% Calm Calm 1.0 mph1.6 kmh 30.33 in1027.1 mb 0.00 in0.0 mm 0.00 in/hr0.0 mm/hr 0.01 in0.3 mm
09:20 PM 43.5°F6.4°C 39.9°F4.4°C 87% Calm Calm 2.0 mph3.2 kmh 30.33 in1027.1 mb 0.00 in0.0 mm 0.00 in/hr0.0 mm/hr 0.01 in0.3 mm
09:35 PM 43.2°F6.2°C 39.8°F4.3°C 88% Calm Calm -- 30.33 in1027.1 mb 0.00 in0.0 mm 0.00 in/hr0.0 mm/hr 0.01 in0.3 mm
09:50 PM 42.6°F5.9°C 39.6°F4.2°C 89% Calm Calm -- 30.33 in1027.1 mb 0.00 in0.0 mm 0.00 in/hr0.0 mm/hr 0.01 in0.3 mm
10:05 PM 42.3°F5.7°C 39.2°F4.0°C 89% Calm Calm -- 30.33 in1027.1 mb 0.00 in0.0 mm 0.00 in/hr0.0 mm/hr 0.00 in0.0 mm
10:20 PM 42.1°F5.6°C 39.4°F4.1°C 90% 1.0 mph W1.6 kmh W 2.0 mph3.2 kmh 30.34 in1027.4 mb 0.00 in0.0 mm 0.00 in/hr0.0 mm/hr 0.00 in0.0 mm
10:35 PM 41.9°F5.5°C 39.5°F4.2°C 91% Calm Calm 2.0 mph3.2 kmh 30.34 in1027.4 mb 0.00 in0.0 mm 0.00 in/hr0.0 mm/hr 0.00 in0.0 mm
10:50 PM 41.5°F5.3°C 39.1°F3.9°C 91% 1.0 mph NE1.6 kmh NE 3.0 mph4.8 kmh 30.33 in1027.1 mb 0.00 in0.0 mm 0.00 in/hr0.0 mm/hr 0.00 in0.0 mm
11:05 PM 41.2°F5.1°C 39.0°F3.9°C 92% Calm Calm 2.0 mph3.2 kmh 30.34 in1027.4 mb 0.00 in0.0 mm 0.00 in/hr0.0 mm/hr 0.00 in0.0 mm
11:20 PM 40.6°F4.8°C 38.5°F3.6°C 92% 1.0 mph NE1.6 kmh NE 2.0 mph3.2 kmh 30.34 in1027.4 mb 0.00 in0.0 mm 0.00 in/hr0.0 mm/hr 0.00 in0.0 mm
11:35 PM 40.1°F4.5°C 38.0°F3.3°C 92% 1.0 mph NE1.6 kmh NE 3.0 mph4.8 kmh 30.33 in1027.1 mb 0.00 in0.0 mm 0.00 in/hr0.0 mm/hr 0.00 in0.0 mm
11:50 PM 39.7°F4.3°C 37.6°F3.1°C 92% 1.0 mph NE1.6 kmh NE 2.0 mph3.2 kmh 30.34 in1027.4 mb 0.00 in0.0 mm 0.00 in/hr0.0 mm/hr 0.00 in0.0 mm